• Join FlightAware (Why Join?)
  • Login
  • US Flag 
04:16AM EDT


 

Airport Tracker/Info


-or-


 

Live Flight TrackerFlight Track Log ✈ ASQ45T ✈ 10-Mar-2013 ✈ KORD - KBDL

Flight Track Log - Related Links

Times and Time Zones

All times are in EDT time to prevent confusion due to time zone crossing. See the ASQ45T flight status page for this flight to view local times or setup timezone preferences in your user account.

Time Position Orientation Groundspeed Altitude Reporting Facility
EDT Latitude Longitude Course Direction KTS MPH feet Rate Location/Type
10:23PM 41.9667 -87.8500 72° East 186 214 2,400  Level Chicago TRACON
10:25PM 42.0011 -87.7056 72° East 262 302 6,000 1,860 Climbing Chicago Center
10:26PM 42.0286 -87.6053 70° East 287 330 7,900 2,040 Climbing Chicago Center
10:27PM 42.0497 -87.4714 78° East 300 345 10,300 1,800 Climbing Chicago Center
10:28PM 42.0686 -87.3500 78° East 323 372 11,600 1,260 Climbing Chicago Center
10:29PM 42.0878 -87.2169 79° East 357 411 13,000 1,260 Climbing Chicago Center
10:30PM 42.1092 -87.0808 78° East 368 423 14,200 1,200 Climbing Chicago Center
10:31PM 42.1167 -86.9372 86° East 383 441 15,500 1,260 Climbing Chicago Center
10:32PM 42.1225 -86.7933 87° East 387 445 16,800 1,380 Climbing Chicago Center
10:33PM 42.1278 -86.6294 87° East 399 459 18,400 1,380 Climbing Chicago Center
10:34PM 42.1331 -86.4792 87° East 402 463 19,700 1,200 Climbing Chicago Center
10:35PM 42.1386 -86.3242 87° East 412 474 20,900 1,140 Climbing Chicago Center
10:36PM 42.1428 -86.1678 88° East 417 480 22,100 1,140 Climbing Chicago Center
10:37PM 42.1442 -86.0103 89° East 419 482 23,300 1,260 Climbing Chicago Center
10:38PM 42.1417 -85.8375 91° East 415 478 24,700 1,320 Climbing Chicago Center
10:39PM 42.1403 -85.6831 91° East 416 479 26,100 1,260 Climbing Chicago Center
10:40PM 42.1389 -85.5292 91° East 415 478 27,300 1,140 Climbing Chicago Center
10:41PM 42.1367 -85.3747 91° East 413 475 28,500 1,140 Climbing Chicago Center
10:42PM 42.1386 -85.2911 88° East 417 480 29,100 1,200 Climbing Cleveland Center
10:43PM 42.1364 -85.1367 91° East 417 480 30,300 1,200 Climbing Cleveland Center
10:44PM 42.1342 -84.9825 91° East 412 474 31,500 1,080 Climbing Cleveland Center
10:45PM 42.1317 -84.8283 91° East 412 474 32,500 960 Climbing Cleveland Center
10:46PM 42.1292 -84.6656 91° East 417 480 33,500 960 Climbing Cleveland Center
10:47PM 42.1264 -84.5086 91° East 422 486 34,500 720 Climbing Cleveland Center
10:48PM 42.1386 -84.3272 85° East 422 486 35,000 240 Climbing Cleveland Center
10:49PM 42.1567 -84.1547 82° East 443 510 35,000  Level Cleveland Center
10:50PM 42.1767 -83.9764 81° East 466 536 35,000  Level Cleveland Center
10:51PM 42.1839 -83.7947 87° East 479 551 35,000  Level Cleveland Center
10:52PM 42.1867 -83.6208 89° East 474 545 35,000  Level Cleveland Center
10:53PM 42.1908 -83.4586 88° East 467 537 35,000  Level Cleveland Center
10:54PM 42.1972 -83.2794 87° East 467 537 35,000  Level Cleveland Center
10:55PM 42.2097 -83.0894 85° East 467 537 35,000  Level Cleveland Center
10:56PM 42.2236 -82.9272 83° East 477 549 35,000  Level Cleveland Center
10:57PM 42.2356 -82.7511 85° East 477 549 35,000  Level Cleveland Center
10:58PM 42.2492 -82.5664 84° East 477 549 35,000  Level Cleveland Center
10:59PM 42.2625 -82.3872 84° East 477 549 35,000  Level Cleveland Center
11:00PM 42.2778 -82.2081 83° East 477 549 35,000  Level Cleveland Center
11:01PM 42.2928 -82.0119 84° East 477 549 35,000  Level Cleveland Center
11:02PM 42.3053 -81.8494 84° East 477 549 35,000  Level Cleveland Center
11:03PM 42.3175 -81.6728 85° East 477 549 35,000  Level Cleveland Center
11:04PM 42.3272 -81.4986 86° East 472 543 35,000  Level Cleveland Center
11:05PM 42.3389 -81.3247 85° East 465 535 35,000  Level Cleveland Center
11:06PM 42.3506 -81.1506 85° East 465 535 35,000  Level Cleveland Center
11:07PM 42.3617 -80.9542 86° East 470 541 35,000  Level Cleveland Center
11:08PM 42.3747 -80.7714 84° East 477 549 35,000  Level Cleveland Center
11:09PM 42.3853 -80.5917 85° East 477 549 35,000  Level Cleveland Center
11:10PM 42.3956 -80.4117 86° East 477 549 35,000  Level Cleveland Center
11:11PM 42.4033 -80.2289 87° East 483 556 35,000  Level Cleveland Center
11:12PM 42.4153 -80.0461 85° East 478 550 35,000  Level Cleveland Center
11:13PM 42.4247 -79.8658 86° East 478 550 35,000  Level Cleveland Center
11:14PM 42.4317 -79.6831 87° East 478 550 35,000  Level Cleveland Center
11:15PM 42.4406 -79.5000 86° East 478 550 35,000  Level Cleveland Center
11:16PM 42.4492 -79.3169 86° East 478 550 35,000  Level Cleveland Center
11:17PM 42.4617 -79.1339 85° East 483 556 35,000  Level Cleveland Center
11:18PM 42.4694 -78.9478 87° East 483 556 35,000  Level Cleveland Center
11:19PM 42.4772 -78.7647 87° East 483 556 35,000  Level Cleveland Center
11:20PM 42.4825 -78.5786 88° East 483 556 35,000  Level Cleveland Center
11:21PM 42.4917 -78.3953 86° East 483 556 35,000  Level Cleveland Center
11:22PM 42.4983 -78.2119 87° East 483 556 35,000  Level Cleveland Center
11:23PM 42.5028 -78.0286 88° East 483 556 35,000  Level Cleveland Center
11:24PM 42.5114 -77.8508 86° East 477 549 35,000  Level Cleveland Center
11:25PM 42.5153 -77.6706 88° East 477 549 35,000  Level Cleveland Center
11:26PM 42.5228 -77.4869 87° East 482 555 35,000  Level Cleveland Center
11:28PM 42.5342 -77.0450 88° East 495 570 35,000  Level Boston Center
11:29PM 42.5394 -76.8619 88° East 490 564 35,000  Level Boston Center
11:30PM 42.5444 -76.6792 88° East 485 558 35,000  Level Boston Center
11:31PM 42.5425 -76.5014 91° East 480 552 35,000 -300 Level Boston Center
11:32PM 42.5319 -76.3231 95° East 473 544 34,500 -1,020 Descending Boston Center
11:33PM 42.5233 -76.1450 94° East 473 544 33,000 -1,500 Descending Boston Center
11:34PM 42.5083 -75.9639 96° East 479 551 31,600 -1,500 Descending Boston Center
11:35PM 42.4969 -75.7914 95° East 479 551 30,100 -1,500 Descending Boston Center
11:36PM 42.4833 -75.6131 96° East 474 545 28,700 -1,500 Descending Boston Center
11:37PM 42.4692 -75.4350 96° East 469 540 27,200 -1,500 Descending Boston Center
11:38PM 42.4550 -75.2542 96° East 469 540 25,800 -1,500 Descending Boston Center
11:39PM 42.4428 -75.0792 95° East 474 545 24,300 -1,500 Descending Boston Center
11:40PM 42.4300 -74.9069 96° East 474 545 22,900 -1,500 Descending Boston Center
11:41PM 42.4167 -74.7350 96° East 463 533 21,400 -1,500 Descending Boston Center
11:42PM 42.4014 -74.5656 97° East 458 527 20,000 -1,500 Descending Boston Center
11:43PM 42.3878 -74.3853 96° East 444 511 18,400 -1,020 Descending Boston Center
11:44PM 42.3778 -74.2417 95° East 435 501 18,000 -240 Descending Boston Center
11:45PM 42.3636 -74.0669 96° East 428 493 18,000  Level Boston Center
11:46PM 42.3492 -73.9206 98° East 428 493 18,000  Level Boston Center
11:47PM 42.3383 -73.7883 96° East 437 503 18,000  Level Boston Center
11:47PM 42.3344 -73.7461 97° East 428 493 18,000 -540 Level Boston Center
11:48PM 42.3308 -73.7039 97° East 427 491 17,700 -1,020 Descending Boston Center
11:48PM 42.3236 -73.6111 96° East 423 487 17,000 -1,620 Descending Boston Center
11:49PM 42.3139 -73.5378 100° East 417 480 16,100 -2,400 Descending Boston Center
11:49PM 42.3083 -73.4564 95° East 418 481 14,600 -2,400 Descending Boston Center
11:50PM 42.3006 -73.3833 98° East 412 474 13,700 -2,220 Descending Boston Center
11:50PM 42.2950 -73.2933 95° East 406 467 12,400 -1,920 Descending Boston Center
11:51PM 42.2872 -73.2428 102° East 385 443 11,800 -1,320 Descending Boston Center
11:51PM 42.2814 -73.1725 96° East 378 435 11,100 -1,320 Descending Boston Center
11:52PM 42.2586 -73.1272 124° Southeast 332 382 10,500 -1,440 Descending Boston Center
11:53PM 42.2258 -73.0400 117° Southeast 294 338 9,300 -1,440 Descending Boston Center
11:54PM 42.2033 -72.9361 106° East 283 326 7,800 -1,440 Descending Boston Center
11:55PM 42.1808 -72.8378 107° East 279 321 6,400 -1,500 Descending Boston Center
11:56PM 42.1686 -72.7481 100° East 258 297 5,000 -1,560 Descending Boston Center
11:56PM 42.1522 -72.6642 105° East 253 291 3,600 -1,260 Descending Boston Center
11:57PM 42.1106 -72.5969 130° Southeast 227 261 2,600 -540 Descending Boston Center
11:58PM 42.0669 -72.5772 161° South 182 209 2,600 -120 Level Boston Center
11:59PM 42.0231 -72.5853 188° South 161 185 2,400 -600 Descending Boston Center
12:00AM 41.9897 -72.6189 217° Southwest 151 174 1,500 -840 Descending Boston Center
12:01AM 41.9647 -72.6550 227° Southwest 128 147 800 -720 Descending Boston Center